Warning: Javascript must be enabled to use all the features on this page!


Page Loading - Please Wait...

* We've detected you're using a mobile device. Find our Next Generation Station Page here.
Click to hideNews Bulletins

Current Conditions for Wisconsin: Streamflow -- 267 site(s) found

PROVISIONAL DATA SUBJECT TO REVISION





Customize table to display other current-condition parameters
Station
Number
Station name Date/Time Gage
height,
feet
Dis-
charge,
ft3/s
Long-
term
median
flow
6/15
Group Undefined
05335450 NORTH FORK CLAM RIVER AT MALONE RD NEAR SIREN, WI  06/01 06:00 CDT 954.93 --     --- 
Group LAKE SUPERIOR BASIN
04024430 NEMADJI RIVER NEAR SOUTH SUPERIOR, WI  06/15 07:00 CDT -- 706 188 
      [Primary Stage]  06/15 07:00 CDT 7.71 --     --- 
04025500 BOIS BRULE RIVER AT BRULE, WI  06/15 07:00 CDT 1.95 182 167 
04026005 BOIS BRULE RIVER NEAR LAKE SUPERIOR, WI  06/15 07:30 CDT 5.20 243 175 
04026157 SISKIWIT RIVER AT CTY HWY C NEAR CORNUCOPIA, WI  10/28 13:00 CDT Dis Dis     --- 
04026160 SISKIWIT RIVER AT CORNUCOPIA, WI  06/15 07:00 CDT 3.63 7.27 7.20 
040263205 WHITTLESEY CREEK NEAR ASHLAND, WI  06/15 07:00 CDT 2.09 16.9 19.0 
04026390 BEARTRAP CREEK AT U.S. HIGHWAY 2 NEAR ASHLAND, WI  06/15 07:00 CDT 4.66 --     --- 
    10/08 09:45 CDT -- 14.0 3.80 
04026561 TYLER FORKS RIVER AT STRICKER ROAD NEAR MELLEN, WI  06/15 07:30 CDT 3.81 53.5 47.0 
040265935 MARENGO RIVER AT FOUR CORNERS RD NR MASON, WI  06/15 07:00 CDT 3.40 63.9     --- 
040265981 MARENGO RIVER AT RIEMER ROAD NR MARENGO, WI  06/15 07:00 CDT 6.16 79.6     --- 
04026740 MARENGO RIVER NEAR MELLEN, WI  06/15 07:00 CDT -- 162 79.0 
      [FINAL STAGE]  06/15 07:00 CDT 7.72 --     --- 
04027000 BAD RIVER NEAR ODANAH, WI  06/15 07:45 CDT 3.29 468 360 
04027500 WHITE RIVER NEAR ASHLAND, WI  06/15 07:35 CDT 0.96 241 230 
04027595 BAD RIVER AT ODANAH, WI  06/15 07:00 CDT 2.24 --     --- 
040276505 DENOMIE CREEK AT MAPLE STREET NEAR ODANAH, WI  06/15 07:00 CDT 5.64 --     --- 
    06/10 01:00 CDT -- 6.03 18.0 
463741090521301 ASHLAND BREAKWATER LIGHTHOUSE CHEQUAMEGON BAY, WI 
      [2 min ave (IGLD85)]  06/15 07:00 CDT 602.39 --     --- 
463836090423701 Kakagon River Slough near Odanah WI  06/15 07:00 CDT 10.11 --     --- 
464646092052900 SUPERIOR BAY DULUTH SHIP CANAL AT DULUTH, MN  10/01 00:55 CDT Dis Dis     --- 
Group MENOMINEE-OCONTO-PESHTIGO RIVER BASINS
04060993 BRULE RIVER AT US HIGHWAY 2 NEAR FLORENCE, WI  06/15 06:30 CST 3.68 270 350 
04062011 BRULE RIVER NEAR COMMONWEALTH, WI  06/15 06:30 CST 7.14 580 595 
04063000 MENOMINEE RIVER NEAR FLORENCE, WI  06/15 07:00 CST 3.42 --     --- 
    06/15 06:00 CST -- 935 1,830 
04063700 POPPLE RIVER NEAR FENCE, WI  06/15 07:45 CDT 2.29 66.6 122 
04064500 PINE RIVER BELOW PINE R POWERPLANT NR FLORENCE, WI  06/15 06:45 CDT 2.32 273 524 
04065106 MENOMINEE RIVER AT NIAGARA, WI  06/15 07:30 CDT 5.45 1,300 2,360 
04065722 MENOMINEE RIVER NEAR VULCAN, MI  06/15 07:00 CST 5.60 1,620 2,890 
04066003 MENOMINEE RIVER BELOW PEMENE CREEK NR PEMBINE, WI  06/15 07:00 CDT 7.41 1,590 2,770 
04066030 MENOMINEE RIVER AT WHITE RAPIDS DAM NEAR BANAT, MI  06/15 07:30 CDT 6.71 1,600 2,890 
04066500 PIKE RIVER AT AMBERG, WI  06/15 07:00 CDT 2.60 140 230 
04066800 MENOMINEE RIVER AT KOSS, MI  06/15 07:00 CDT 10.12 2,090 3,449 
04067500 MENOMINEE RIVER NEAR MC ALLISTER, WI  06/15 07:00 CDT 9.50 2,500 3,640 
04067958 PESHTIGO RIVER NEAR WABENO, WI  06/15 07:00 CDT 4.09 273 442 
04069416 PESHTIGO RIVER AT PORTERFIELD, WI  06/15 07:00 CDT 8.27 711 818 
04069500 PESHTIGO RIVER AT PESHTIGO, WI  06/15 07:00 CDT 1.98 719 918 
04071000 OCONTO RIVER NEAR GILLETT, WI  06/15 07:00 CDT 1.31 433 579 
04071765 OCONTO RIVER NEAR OCONTO, WI  06/15 07:00 CDT 4.76 550 686 
04072076 SILVER CREEK AT FLORIST DRIVE AT ONEIDA, WI  06/15 07:00 CDT 2.42 0.04 1.30 
04072150 DUCK CREEK NEAR HOWARD, WI  06/15 07:00 CDT 11.52 16.8 36.0 
445322088281801 BERRY LAKE NEAR SHAWANO, WI  06/15 08:00 CDT 92.77 --     --- 
Group FOX-WOLF RIVER BASINS
04073240 CHAFFEE CREEK AT I-39 NEAR COLOMA, WI  06/15 07:00 CDT 3.64 12.3 15.0 
04073365 FOX RIVER AT PRINCETON, WI  06/15 07:00 CDT 5.78 1,030 1,210 
04073457 WUERCHES CREEK AT CT HWY B NEAR GREEN LAKE, WI  06/15 07:02 CDT 4.73 0.60     --- 
04073458 ROY CREEK AT ROY CREEK ROAD NEAR GREEN LAKE, WI  06/15 07:02 CDT 4.71 1.71 4.20 
040734605 GREEN LAKE SW INLET @ CT HIGHWY K NR GREEN LAKE,WI 
      [(2)]  06/15 07:00 CDT 6.74 --     --- 
      [(4)]  06/15 07:00 CDT -- -24.6 14.0 
04073462 WHITE CREEK AT SPRING GROVE ROAD NR GREEN LAKE, WI  06/15 07:00 CDT 4.38 4.15 3.30 
04073466 SILVER CREEK AT SPAULDING ROAD NEAR GREEN LAKE, WI  06/15 06:55 CDT -- 31.9 49.0 
      [Stage]  06/15 07:00 CDT 7.00 --     --- 
04073473 PUCHYAN RIVER DS N. LAWSON DRIVE NR GREEN LAKE, WI  06/15 07:00 CDT 7.63 117 87.0 
04073500 FOX RIVER AT BERLIN, WI  06/15 07:00 CDT 10.07 1,400 1,019 
04074950 WOLF RIVER AT LANGLADE, WI  06/15 07:00 CDT 7.97 382 452 
04077630 RED RIVER AT MORGAN ROAD NEAR MORGAN, WI  06/15 07:00 CDT 5.86 109 135 
04078500 EMBARRASS RIVER NEAR EMBARRASS, WI  06/15 07:00 CDT 3.21 270 289 
04079000 WOLF RIVER AT NEW LONDON, WI  06/15 07:00 CDT -- 2,790 2,000 
      [Primary Stage]  06/15 07:00 CDT 5.80 --     --- 
0407991001 Unk Trib to SB Little Wolf River nr Ogdensburg, WI  06/15 07:00 CDT 3.20 0.41     --- 
04080798 TOMORROW RIVER NEAR NELSONVILLE, WI  06/15 07:00 CDT 8.71 35.2 31.0 
04081500 WOLF RIVER AT WINNECONNE, WI  06/15 07:00 CDT 9.31 4,240     --- 
04082400 FOX RIVER AT OSHKOSH, WI  06/15 07:05 CDT 6.62 --     --- 
      [(4)]  06/15 07:05 CDT -- 5,260 5,050 
04082500 LAKE WINNEBAGO AT OSHKOSH, WI  06/15 07:00 CDT 3.22 --     --- 
04083545 FOND DU LAC RIVER @ W. ARNDT ST. AT FOND DU LAC,WI  06/15 07:00 CDT 3.43 185     --- 
04084255 LAKE WINNEBAGO NEAR STOCKBRIDGE, WI  06/15 07:00 CDT 3.18 --     --- 
04084445 FOX RIVER AT APPLETON, WI  06/15 07:00 CDT -- 5,370 5,030 
      [PIER]  06/15 07:00 CDT 5.60 --     --- 
04084911 PLUM CREEK NEAR WRIGHTSTOWN, WI  06/15 07:00 CDT 2.41 4.21 2.30 
04085068 ASHWAUBENON CREEK NEAR LITTLE RAPIDS, WI  06/15 07:00 CDT 3.03 1.51 3.50 
040850684 ASHWAUBENON CREEK AT GRANT ST NR WEST DEPERE, WI  06/15 07:00 CDT 3.91 4.20 9.30 
04085074 DUTCHMAN CREEK AT CYRUS ST NR ASHWAUBENON, WI  06/15 07:00 CDT 4.16 0.42 3.10 
04085078 DUTCHMAN CREEK AT HANSEN RD AT ASHWAUBENON, WI  06/15 07:00 CDT 4.43 3.75 7.10 
04085108 EAST RIVER @ CNTY TRUNK HIGHWAY ZZ NR GREENLEAF,WI  06/15 07:00 CDT -- 12.3 8.30 
      [BUBBLER Stage]  06/15 07:00 CDT 5.14 --     --- 
04085138 EAST RIVER AT GREEN BAY, WI  06/15 07:00 CDT 9.44 -145     --- 
040851385 FOX RIVER AT OIL TANK DEPOT AT GREEN BAY, WI 
      [(2)]  06/15 07:00 CDT -- 926 6,490 
      [Stage IGLD85]  06/15 07:00 CDT 580.19 --     --- 
434840089000001 GREEN LAKE AT GREEN LAKE, WI  06/15 07:00 CDT 6.74 --     --- 
441520088045001 GLRI EAST RIVER WATERWAY 3 NEAR GREENLEAF, WI  06/15 07:00 CDT -0.01 --     --- 
      [COMBINED]  06/15 07:00 CDT -- 0.0000     --- 
441520088045002 GLRI EAST RIVER TILE 1 NEAR GREENLEAF, WI  10/01 00:45 CDT -- 0.00000 .030 
441546088082001 GLRI EAST RIVER WATERWAY NUMBER 2 NR GREENLEAF, WI  09/28 15:00 CDT 0.00 0.0000     --- 
441605088115701 TRT WETLAND TWO SURFACE INLET NR KAUKAUNA, WI  06/15 07:00 CDT -0.01 0.00     --- 
441605088115702 TRT WETLAND TWO DRAIN TILE INLET NR KAUKAUNA, WI  06/15 07:00 CDT 0.06 --     --- 
      [(2)]  06/15 07:00 CDT -- 0.00     --- 
441605088115703 TRT WETLAND TWO OUTLET NR KAUKAUNA, WI  06/15 07:00 CDT 699.69 --     --- 
      [FINAL Discharge]  06/15 07:00 CDT -- 0.01     --- 
      [OVERFLOW FLUME STAGE]  06/15 07:00 CDT 0.28 --     --- 
442114088085701 GLRI WATERWAY NUMBER 5 NR WRIGHTSTOWN, WI  06/15 07:00 CDT 0.04 --     --- 
      [FINAL]  06/15 07:00 CDT -- 0.0179     --- 
442119088085501 GLRI WATERWAY NUMBER 4 NR WRIGHTSTOWN, WI  06/15 07:00 CDT -0.01 --     --- 
      [COMBINED]  06/15 07:00 CDT -- 0.0000     --- 
444049087424302 GLRI BIOREACTOR INLET NR DUVALL,WI  06/15 07:02 CDT Eqp Eqp     --- 
444049087424303 GLRI BIOREACTOR OUTLET NR DUVALL, WI  06/15 07:02 CDT Eqp --     --- 
      [FIANL, PRIMARY]  06/15 07:02 CDT -- Eqp     --- 
Group LAKE MICHIGAN BASIN
04085200 KEWAUNEE RIVER NEAR KEWAUNEE, WI  06/15 07:00 CDT 9.05 56.6 44.0 
04085427 MANITOWOC RIVER AT MANITOWOC, WI  06/15 07:00 CDT 6.47 939 222 
04086000 SHEBOYGAN RIVER AT SHEBOYGAN, WI  06/15 07:00 CDT 2.59 318 153 
04086500 CEDAR CREEK NEAR CEDARBURG, WI  06/15 07:15 CDT 6.24 187 42.0 
04086600 MILWAUKEE RIVER NEAR CEDARBURG, WI  06/15 07:00 CDT 6.60 --     --- 
      [(3)]  06/15 07:00 CDT -- 667 340 
040869416 LINCOLN CREEK @ SHERMAN BOULEVARD AT MILWAUKEE, WI  06/15 07:00 CDT 3.67 4.95 5.10 
04087000 MILWAUKEE RIVER AT MILWAUKEE, WI 
      [(2)]  06/15 06:30 CDT -- 777 287 
      [15-min Average]  06/15 06:30 CDT 2.75 --     --- 
040870115 MILWAUKEE RIVER D/S E CHERRY ST AT MILWAUKEE, WI  11/09 11:00 CST 5.30 --     --- 
04087030 MENOMONEE RIVER AT MENOMONEE FALLS, WI  06/15 06:30 CDT -- 33.5 15.0 
04087050 LITTLE MENOMONEE RIVER NEAR FREISTADT, WI  06/15 07:00 CDT 2.31 6.11 2.90 
04087070 LITTLE MENOMONEE RIVER AT MILWAUKEE, WI  06/15 07:00 CDT 4.00 13.6 9.40 
0408708567 UNDERWOOD CREEK AT UNNAMED ROAD, ELM GROVE, WI  12/13 13:00 CST Dis Dis 5.40 
040870860 UNDERWOOD CREEK AT W BLUE MOUND RD, ELM GROVE, WI  12/13 12:45 CST Dis --     --- 
      [(3)]  12/13 12:45 CST -- Dis     --- 
04087087 UNDERWOOD CREEK AT 115TH STREET AT WAUWATOSA, WI  12/13 13:00 CST Dis Dis     --- 
040870876 UNDERWOOD CR ON BIKE PATH/Rt 100, WAUWATOSA, WI.  12/13 13:15 CST 2.69 --     --- 
    12/13 13:00 CST -- 7.86 8.20 
04087088 UNDERWOOD CREEK AT WAUWATOSA, WI  06/15 07:00 CDT 8.54 14.0 7.90 
04087119 HONEY CREEK AT WAUWATOSA, WI  06/15 07:00 CDT 9.70 2.10 4.00 
04087120 MENOMONEE RIVER AT WAUWATOSA, WI  06/15 06:55 CDT 2.21 94.7 46.0 
04087142 MENOMONEE RIVER AT 16TH STREET AT MILWAUKEE, WI  06/15 07:00 CDT 13.67 --     --- 
      [Q-Vel]  06/15 07:00 CDT -- 363 119 
040871473 WILSON PARK CREEK AT GMIA INFALL AT MILWAUKEE, WI  06/15 07:05 CDT 10.65 0.11 .51 
040871475 WILSON PARK CREEK @ GMIA OUTFALL 7 @ MILWAUKEE,WI  06/15 07:15 CDT 10.94 1.21 1.70 
040871476 HOLMES AVE CRK TRIB @ GMIA OUTFALL 1 AT MILWAUKEE  06/15 07:00 CDT 0.10 0.00     --- 
040871488 WILSON PARK CK @ ST. LUKES HOSPITAL @ MILWAUKEE,WI  06/15 07:10 CDT 11.19 4.74 11.0 
04087159 KINNICKINNIC RIVER @ S. 11TH STREET @ MILWAUKEE,WI  06/15 07:00 CDT 6.16 6.34 12.0 
04087161 KINNICKINNIC RIVER AT S. 1ST ST AT MILWAUKEE, WI  05/04 09:25 CDT 7.06 --     --- 
04087170 MILWAUKEE RIVER AT MOUTH AT MILWAUKEE, WI  06/15 07:00 CDT 9.31 --     --- 
      [FINAL]  06/15 07:00 CDT -- 341 860 
04087204 OAK CREEK AT SOUTH MILWAUKEE, WI  06/15 07:45 CDT 2.45 8.88 9.00 
04087214 ROOT RIVER AT GRANGE AVENUE AT GREENDALE, WI  06/15 07:45 CDT 10.62 3.10 4.40 
04087220 ROOT RIVER NEAR FRANKLIN, WI  06/15 07:00 CDT 2.12 15.1 17.0 
04087233 ROOT RIVER CANAL NEAR FRANKLIN, WI  06/15 07:00 CDT 2.49 20.9 20.0 
04087234 ROOT RIVER AT 60TH ST NEAR CALEDONIA, WI  06/15 07:00 CDT 4.36 43.6 39.0 
04087240 ROOT RIVER AT RACINE, WI  06/15 07:00 CDT 2.72 63.9 62.0 
04087257 PIKE RIVER NEAR RACINE, WI  06/15 07:00 CDT 1.37 13.5 19.0 
425514088055201 EAST 12-IN WETLAND INLET NR CORNELL DR MUSKEGO, WI  06/15 07:02 CDT 0.00 --     --- 
425514088055301 CENTER 15IN WETLAND INLET NR CORNELL DR MUSKEGO WI 
      [ACOUSTIC]  06/15 07:02 CDT 0.00 --     --- 
425514088055601 WEST 18-IN WETLAND INLET NR CORNELL DR MUSKEGO, WI 
      [ACOUSTIC]  06/15 07:01 CDT 0.01 --     --- 
430528087571001 GREEN TECH BIOFILTER OUTLET AT MILWAUKEE, WI  06/15 07:02 CDT 0.00 --     --- 
430529087571001 GREEN TECH BIOFILTER INLET AT MILWAUKEE, WI  06/15 07:02 CDT 0.00 --     --- 
442155087330001 DISCOVERY FARMS WATERWAY KD2 NEAR KEWAUNEE, WI  06/15 07:00 CDT 0.00 0.0000     --- 
442405087414401 DISCOVERY FARMS WATERWAY KD1 NEAR KEWAUNEE, WI  06/15 07:00 CDT -- 0.0000     --- 
      [BUBBLER]  06/15 07:00 CDT 0.00 --     --- 
Group ST. CROIX RIVER BASIN
05331833 NAMEKAGON RIVER AT LEONARDS, WI  06/15 07:00 CDT 2.01 162 151 
05333500 ST. CROIX RIVER NEAR DANBURY, WI  06/15 07:00 CDT 1.97 1,870 1,310 
05335492 CLAM RIVER AT HWY 35 NR WEBSTER, WI  06/15 07:00 CDT 7.40 --     --- 
05340500 ST. CROIX RIVER AT ST. CROIX FALLS, WI  06/15 07:00 CDT 5.31 7,940 4,110 
05341498 APPLE RIVER ABOVE 05341499 AT PARK IN SOMERSET, WI  06/15 07:00 CDT 5.29 716     --- 
05341752 WILLOW RIVER @ WILLOW R STATE PARK NR BURKHARDT,WI  01/08 09:00 CST Dis Dis 163 
05342000 KINNICKINNIC RIVER NEAR RIVER FALLS, WI  06/15 07:00 CDT 8.42 158 110 
05344490 ST. CROIX RIVER AT PRESCOTT, WI  06/15 07:15 CDT 32.70 11,700 5,500 
05344500 MISSISSIPPI RIVER AT PRESCOTT, WI  06/15 07:15 CDT 32.65 70,100 23,300 
Group CHIPPEWA RIVER BASIN
05356000 CHIPPEWA RIVER AT BISHOPS BRIDGE NEAR WINTER, WI  06/15 07:00 CDT 6.11 1,520 551 
05356500 CHIPPEWA RIVER NEAR BRUCE, WI  06/15 07:00 CDT 3.86 2,430 1,240 
05357206 ALLEQUASH CREEK SITE NO. 3 NR BOULDER JUNCTION, WI 
      [DOWNSTREAM]  06/15 07:00 CDT -- Dis 4.20 
      [Gage Height]  06/15 07:00 CDT Dis --     --- 
05357215 ALLEQUASH CREEK @ CT HWY M NR BOULDER JUNCTION, WI  06/15 07:00 CDT -- Dis 12.0 
      [Gage Height]  06/15 07:00 CDT Dis --     --- 
05357225 STEVENSON CREEK @ CT HWY M NR BOULDER JUNCTION, WI  02/05 09:00 CST -- Dis 3.20 
      [Gage Height]  02/05 09:00 CST Dis --     --- 
05357230 NORTH CREEK AT TROUT LAKE NEAR BOULDER JUNCTION,WI  02/05 11:00 CST -- Dis 3.90 
      [Gage Height]  02/05 11:00 CST Dis --     --- 
05357245 TROUT RIVER AT TROUT LAKE NEAR BOULDER JUNCTION,WI  06/15 07:00 CDT -- Dis 49.0 
      [Gage Height]  06/15 07:00 CDT Dis --     --- 
05357335 BEAR RIVER NEAR MANITOWISH WATERS, WI  06/15 07:15 CDT 4.03 133 80.0 
05359500 SOUTH FORK FLAMBEAU RIVER NEAR PHILLIPS, WI  06/15 07:45 CDT 6.19 706 669 
05360500 FLAMBEAU RIVER NEAR BRUCE, WI  06/15 07:00 CDT 7.16 2,350 1,739 
05362000 JUMP RIVER AT SHELDON, WI  06/15 07:00 CDT 4.09 373 288 
05363600 NF YELLOW R AT YELLOW RIVER RD NR PERKINSTOWN, WI  06/15 07:00 CDT -- Dis 13.0 
      [Gage height, feet , Averaged]  06/15 07:00 CDT 8.78 --     --- 
05364128 DRYWOOD CREEK AT COVERED FOOTBRIDGE NR CADOTT, WI  06/15 06:00 CST 4.62 23.8 12.0 
05365500 CHIPPEWA RIVER AT CHIPPEWA FALLS, WI  06/15 07:00 CDT 5.42 4,710 4,710 
05365550 CHIPPEWA RIVER BELOW DELLS DAM AT EAU CLAIRE, WI  06/15 07:00 CDT -- 4,850     --- 
      [RADAR]  06/15 07:00 CDT 5.95 --     --- 
05366800 CHIPPEWA R AT GRAND AVE AT EAU CLAIRE, WI  06/15 07:00 CDT 5.28 5,430 5,930 
05367500 RED CEDAR RIVER NEAR COLFAX, WI  06/15 07:00 CDT 2.94 904 746 
05368000 HAY RIVER AT WHEELER, WI  06/15 07:00 CDT 4.60 469 280 
05369000 RED CEDAR RIVER AT MENOMONIE, WI  06/15 07:00 CDT 7.37 1,740 1,260 
05369500 CHIPPEWA RIVER AT DURAND, WI  06/15 07:00 CDT 5.08 9,530 6,919 
05370000 EAU GALLE RIVER AT SPRING VALLEY, WI  06/15 07:45 CDT 12.86 37.6 23.0 
Group TREMPEALEAU-BLACK-LA CROSSE RIVER BASINS
05378500 MISSISSIPPI RIVER AT WINONA, MN  06/15 07:45 CDT 11.01 93,000 40,000 
05379400 TREMPEALEAU RIVER AT ARCADIA, WI  06/15 07:00 CDT -- 439 382 
      [Current Stage]  06/15 07:00 CDT 3.61 --     --- 
05379500 TREMPEALEAU RIVER AT DODGE, WI  06/15 07:00 CDT 666.97 522 420 
      [Current Stage]  06/15 07:00 CDT 5.78 --     --- 
05381000 BLACK RIVER AT NEILLSVILLE, WI  06/15 07:00 CDT 3.64 268 282 
053813595 BLACK RIVER DS ST HWY 54 AT BLACK RIVER FALLS, WI  06/15 07:00 CDT 36.95 1,060 1,170 
05382000 BLACK RIVER NEAR GALESVILLE, WI  06/15 07:00 CDT -- 1,310 1,240 
      [Final Stage]  06/15 07:00 CDT 4.38 --     --- 
05382255 STILLWELL CREEK AT SIXTEENTH COURT NEAR TOMAH, WI  06/15 07:00 CDT 1.31 1.74 2.70 
05382257 STILLWELL CREEK AT YARD ROAD NEAR TOMAH, WI  06/15 07:00 CDT 1.71 1.37 3.10 
05382267 LA CROSSE RIVER @ CNTY TRUNK HIGHWY BB NR TOMAH,WI  06/15 07:00 CDT 6.18 87.8 89.0 
05382284 SILVER CREEK AT STATE HIGHWAY 21 NEAR ANGELO, WI  06/15 06:45 CDT 5.90 39.8 48.0 
05382325 LA CROSSE RIVER AT SPARTA, WI  06/15 07:15 CDT 3.89 161 174 
05383075 LA CROSSE RIVER NEAR LA CROSSE, WI  06/15 07:00 CDT 2.91 412 468 
05386400 MISSISSIPPI RIVER AT BROWNSVILLE, MN  06/15 07:45 CDT 33.48 --     --- 
05389500 Mississippi River at McGregor, IA  10/29 23:45 CDT 7.71 --     --- 
      [stage-only period of record]  06/15 07:45 CDT 14.86 --     --- 
Group WISCONSIN RIVER BASIN
05390100 LAC VIEUX DESERT NEAR LAND O'LAKES, WI  06/15 07:45 CDT 80.51 --     --- 
05390500 ANVIL LAKE NEAR EAGLE RIVER, WI 
      [(2)]  06/15 07:30 CDT 93.31 --     --- 
05391000 WISCONSIN RIVER @ RAINBOW LAKE NR LAKE TOMAHAWK,WI  06/15 07:00 CDT 1.89 576 615 
05393500 SPIRIT RIVER AT SPIRIT FALLS, WI  06/15 07:30 CDT 1.83 41.4 48.0 
05394500 PRAIRIE RIVER NEAR MERRILL, WI  06/15 07:00 CDT 2.51 151 148 
05395000 WISCONSIN RIVER AT MERRILL, WI  06/15 07:05 CDT 5.01 2,250 2,300 
05396000 BIG RIB RIVER AT RIB FALLS, WI  06/15 07:00 CDT 2.49 129 133 
05397500 EAU CLAIRE RIVER AT KELLY, WI  06/15 07:00 CDT 0.78 170 196 
05398000 WISCONSIN RIVER AT ROTHSCHILD, WI  06/15 07:00 CDT 14.08 --     --- 
      [SLOPE-SLPQ]  06/15 07:00 CDT -- 3,190 2,980 
05398100 WISCONSIN RIVER AT MOSINEE, WI  06/15 07:00 CDT 11.92 --     --- 
05399500 BIG EAU PLEINE RIVER AT STRATFORD, WI  06/15 07:00 CDT 2.83 54.7 46.0 
05400625 LITTLE PLOVER RIVER NEAR PLOVER, WI  06/15 07:00 CDT 3.43 8.03 7.90 
05400760 WISCONSIN RIVER AT WISCONSIN RAPIDS, WI  06/15 07:30 CDT 3.22 --     --- 
      [(2)]  06/15 07:00 CDT -- 3,970     --- 
05401034 S.BR.TENMILE CREEK NEAR BANCROFT, WI  06/15 07:00 CDT 3.74 14.4 13.0 
05401050 TENMILE CREEK NEAR NEKOOSA, WI  06/15 07:00 CDT 5.57 140 76.0 
05401063 LAKE HURON NEAR PLAINFIELD, WI  06/15 07:00 CDT 95.17 --     --- 
05401065 LONG LAKE NEAR PLAINFIELD, WI  06/15 07:45 CDT 14.69 --     --- 
05401514 BIG ROCHE A CRI CREEK AT HWY G NR LEOLA, WI  06/15 07:00 CDT 4.85 25.2 28.0 
05402000 YELLOW RIVER AT BABCOCK, WI  06/15 07:00 CDT 4.07 --     --- 
    06/15 06:30 CDT -- 273     --- 
05403000 YELLOW RIVER AT NECEDAH, WI  06/15 07:00 CDT 10.23 417 344 
05403202 WISCONSIN R BELOW CASTLE ROCK DAM NR MAUSTON, WI  06/15 08:00 CDT 12.09 --     --- 
05403500 LEMONWEIR RIVER AT NEW LISBON, WI  06/15 07:00 CDT 5.10 369 248 
05404000 WISCONSIN RIVER NEAR WISCONSIN DELLS, WI  06/15 07:00 CDT 4.17 7,980 7,760 
05404129 BARABOO RIVER AT LA VALLE, WI  06/15 07:00 CDT 6.16 --     --- 
05404140 W BRANCH BIG CREEK AT CLARK RD NR LA VALLE, WI  06/15 07:00 CDT 2.88 6.02 6.40 
05404147 BIG CREEK OUTLET AT LAKE REDSTONE NR LA VALLE, WI  06/15 06:45 CDT 2.71 21.4 21.0 
05404150 E BRANCH BIG CREEK AT LAVALLE RD NR LA VALLE, WI  06/15 07:00 CDT Dis Dis 3.60 
054041665 BARABOO RIVER AT MAIN STREET AT REEDSBURG, WI  06/15 07:00 CDT 6.54 --     --- 
05404500 DEVILS LAKE NEAR BARABOO, WI  06/15 07:00 CDT 8.46 --     --- 
05405000 BARABOO RIVER NEAR BARABOO, WI  06/15 07:00 CDT 8.41 392 318 
05406457 BLACK EARTH CREEK NR BREWERY RD AT CROSS PLAINS,WI  06/15 07:00 CDT 2.13 16.9 13.0 
05406469 BREWERY CREEK-UPSTREAM SITE-AT CROSS PLAINS, WI  06/15 07:00 CDT 2.56 4.39 3.60 
05406479 BLACK EARTH CK NR TREATMENT PLNT @ CROSS PLAINS,WI  06/15 07:00 CDT 3.28 50.6 27.0 
05406500 BLACK EARTH CREEK AT BLACK EARTH, WI  06/15 07:00 CDT 2.26 71.6 37.0 
05407000 WISCONSIN RIVER AT MUSCODA, WI  06/15 07:00 CDT -- 12,700 9,920 
      [FINAL]  06/15 07:00 CDT 3.14 --     --- 
05407468 KICKAPOO R @ ST HWY 131 AT ONTARIO, WI  06/15 07:00 CDT 8.67 75.1 84.0 
05408000 KICKAPOO RIVER AT LA FARGE, WI  06/15 07:00 CDT 3.38 203 170 
05410490 KICKAPOO RIVER AT STEUBEN, WI  06/15 07:45 CDT 6.81 615 543 
433821090063801 DISCOVERY FARMS WATERWAY RS2 NEAR MAUSTON, WI  10/02 09:45 CDT -0.00 0.0000     --- 
433939090050501 DISCOVERY FARMS WATERWAY RS1 NEAR MAUSTON, WI  10/02 09:45 CDT Dis Dis     --- 
435857089325301 PLEASANT LAKE NEAR WESTFIELD, WI  06/15 07:00 CDT 12.33 --     --- 
445557090090601 DISCOVERY FARMS WATERWAY MT3 NEAR MILAN, WI  06/15 07:00 CDT 0.00 0.00     --- 
450157090060701 DISCOVERY FARMS WATERWAY MT1 NEAR ATHENS, WI 
      [PRIMARY, BUBBLER]  06/15 07:00 CDT 0.00 --     --- 
      [PRIMARY]  06/15 07:00 CDT -- 0.0000     --- 
451021089064901 DISCOVERY FARMS WATERWAY AO1 NEAR ANTIGO, WI  06/15 07:00 CDT -0.00 0.0000     --- 
451207089041801 DISCOVERY FARMS WATERWAY AO2 NEAR ANTIGO, WI  06/15 07:00 CDT -0.00 0.0000     --- 
451337089035401 DISCOVERY FARMS WATERWAY AO3 NEAR ANTIGO, WI  06/15 07:00 CDT -0.00 0.0000     --- 
Group GRANT-PLATTE-GALENA RIVER BASINS
05411500 Mississippi River at Clayton, IA  06/15 07:45 CDT 16.84 --     --- 
05413500 GRANT RIVER AT BURTON, WI  06/15 07:15 CDT -- 165 146 
      [PRIMARY STAGE]  06/15 07:15 CDT 5.35 --     --- 
05414000 PLATTE RIVER NEAR ROCKVILLE, WI  06/15 07:00 CDT -- 168 91.0 
      [Primary Stage]  06/15 07:00 CDT 4.56 --     --- 
Group ROCK RIVER BASIN
05423500 SOUTH BRANCH ROCK RIVER AT WAUPUN, WI  06/15 07:00 CDT 2.51 40.1 23.0 
05424057 ROCK RIVER AT HORICON, WI  06/15 07:00 CDT 7.07 --     --- 
      [PRIMARY, Q-Vel]  06/15 07:00 CDT -- 1,130 424 
05424157 ROCK RIVER NEAR LEBANON, WI  06/15 07:00 CDT 10.54 2,410     --- 
05425500 ROCK RIVER AT WATERTOWN, WI  06/15 07:00 CDT 4.54 2,750 387 
05425912 BEAVERDAM RIVER AT BEAVER DAM, WI  06/15 07:00 CDT 841.79 567 46.0 
05426000 CRAWFISH RIVER AT MILFORD, WI  06/15 06:45 CDT 6.86 2,450 275 
05426031 ROCK RIVER AT JEFFERSON, WI  06/15 07:00 CDT 9.40 --     --- 
05426067 BARK RIVER AT NAGAWICKA ROAD AT DELAFIELD, WI  06/15 07:00 CDT 12.80 40.8 30.0 
05426250 BARK RIVER NEAR ROME, WI  06/15 07:00 CDT 2.37 123 80.0 
05427085 ROCK RIVER AT FORT ATKINSON, WI  06/15 07:00 CDT 15.69 6,030 2,260 
05427235 LAKE KOSHKONONG NEAR NEWVILLE, WI  06/15 07:00 CDT 9.93 --     --- 
05427530 ROCK RIVER AT NEWVILLE, WI  06/15 07:00 CDT 6.12 --     --- 
      [(4)]  06/15 07:00 CDT -- 6,970 2,340 
05427718 YAHARA RIVER AT WINDSOR, WI  06/15 07:10 CDT 2.19 29.6 21.0 
05427850 YAHARA RIVER AT STATE HIGHWAY 113 AT MADISON, WI  06/15 07:00 CDT 10.83 --     --- 
      [(4)]  06/15 07:00 CDT -- 88.6 72.0 
05427880 SIXMILE CREEK AT STATE HIGHWAY 19 NEAR WAUNAKEE,WI  06/15 07:00 CDT 3.50 23.9 13.0 
05427905 SIXMILE CREEK AT WOODLAND DRIVE NEAR WAUNAKEE, WI  06/15 07:00 CDT 7.26 --     --- 
      [PRIMARY]  06/15 07:00 CDT -- 19.9     --- 
05427910 SIXMILE CREEK @ COUNTY TRNK HGHWY M NR WAUNAKEE,WI  06/15 07:00 CDT 10.93 --     --- 
      [PRIMARY]  05/01 11:05 CDT -- Mnt 26.0 
05427927 DORN (SPRING) CREEK @ CT HIGHWAY Q NR WAUNAKEE, WI  06/15 07:00 CDT 0.74 13.5 5.40 
05427930 DORN (SPRING) CREEK AT CT HIGHWAY M NR WAUNAKEE,WI  06/15 07:00 CDT 11.03 --     --- 
      [(4)]  06/15 07:00 CDT -- 30.3 9.30 
05427943 PHEASANT BRANCH AT AIRPORT ROAD NEAR MIDDLETON, WI  06/15 07:00 CDT 4.26 0.80 1.70 
054279465 S FORK PHEASANT BRANCH @ DEMING WAY @ MIDDLETON,WI  06/15 07:00 CDT 2.29 0.51 1.40 
05427948 PHEASANT BRANCH AT MIDDLETON, WI  06/15 07:00 CDT 3.59 3.54 3.20 
05427965 SPRING HARBOR STORM SEWER AT MADISON, WI  06/15 07:00 CDT -- 0.27 .19 
      [BUBBLER]  06/15 07:00 CDT 0.48 --     --- 
05428000 LAKE MENDOTA AT MADISON, WI 
      [(4)]  06/15 07:00 CDT 10.74 --     --- 
05428500 YAHARA RIVER AT EAST MAIN STREET AT MADISON, WI  06/15 07:00 CDT 6.20 162 150 
05429000 LAKE MONONA AT MADISON, WI  06/15 07:00 CDT Eqp --     --- 
05429369 SWAN CREEK AT LALOR ROAD NEAR FITCHBURG, WI  06/15 07:00 CDT 5.70 3.54 1.30 
05429485 LAKE WAUBESA AT MC FARLAND, WI  06/15 07:15 CDT 5.64 --     --- 
05429500 YAHARA RIVER AT MC FARLAND, WI 
      [(5)]  06/15 07:00 CDT -- 413 157 
05429700 YAHARA RIVER @ FORTON STREET BRIDGE @ STOUGHTON,WI  06/15 07:00 CDT 6.30 512 268 
05430150 BADFISH CREEK NEAR COOKSVILLE, WI  06/15 07:00 CDT 5.21 154 118 
05430175 YAHARA RIVER NEAR FULTON, WI  06/15 07:00 CDT 5.58 494 380 
05430500 ROCK RIVER AT AFTON, WI  06/15 07:00 CDT 9.40 7,630 1,660 
05431016 JACKSON CREEK AT MOUND ROAD NEAR ELKHORN, WI  06/15 07:00 CDT 8.42 5.10 8.10 
05431022 DELAVAN LAKE OUTLET AT BORG ROAD NEAR DELAVAN, WI  06/15 07:00 CDT 5.21 2.13     --- 
05431486 TURTLE CREEK AT CARVERS ROCK ROAD NEAR CLINTON, WI  06/15 07:00 CDT 3.88 141 103 
05432500 PECATONICA RIVER AT DARLINGTON, WI  06/15 07:00 CDT 4.82 347 172 
05433000 EAST BRANCH PECATONICA RIVER NR BLANCHARDVILLE, WI  06/15 07:00 CDT 5.75 237 141 
05434500 PECATONICA RIVER AT MARTINTOWN, WI  06/15 07:00 CDT 8.46 1,370 678 
05435943 BADGER MILL CREEK AT VERONA, WI  06/15 07:00 CDT -- 14.6 13.0 
      [Current Stage]  06/15 07:00 CDT 4.48 --     --- 
05435950 SUGAR RIVER NEAR VERONA, WI  06/15 07:00 CDT 3.37 75.3 75.0 
05436500 SUGAR RIVER NEAR BRODHEAD, WI  06/15 07:00 CDT 1.94 572 307 
05438283 PISCASAW CREEK NEAR WALWORTH, WI  06/15 07:00 CDT 5.52 2.53 3.40 
425715089164700 LAKE KEGONSA AT BARBER DRIVE NEAR STOUGHTON, WI  06/15 07:00 CDT 3.77 --     --- 
430338089295701 DETENTION POND OUTLET AT MEMORIAL HS @ MADISON, WI  06/15 06:59 CDT 0.59 0.30     --- 
Group ILLINOIS-FOX RIVER BASINS
05543830 FOX RIVER AT WAUKESHA, WI  06/15 07:00 CDT 3.60 186 74.0 
05544200 MUKWONAGO RIVER AT MUKWONAGO, WI  06/15 07:00 CDT 2.35 42.3 48.0 
05544348 FOX RIVER AT WATERFORD DAM, AT WATERFORD, WI  06/15 07:45 CDT 1.66 --     --- 
05544385 MUSKEGO (BIG MUSKEGO) LAKE OUTLET NR WIND LAKE, WI 
      HEADWATER, [Headwater]  06/15 07:45 CDT 11.77 --     --- 
      TAILWATER (BASE), [Tailwater]  06/15 07:45 CDT 8.92 --     --- 
05544475 FOX RIVER AT ROCHESTER, WI  06/15 07:45 CDT 4.61 --     --- 
055451345 WHITE RIVER AT CENTER STREET AT LAKE GENEVA, WI  06/15 06:55 CDT 8.27 --     --- 
    06/15 06:00 CDT -- 26.4 46.0 
05545750 FOX RIVER NEAR NEW MUNSTER, WI  06/15 07:00 CDT 7.852 899 519 
423000088164401 ELIZABETH LAKE AT TWIN LAKES, WI-IL 
      [Above NAVD88]  06/15 06:30 CST 794.35 --     --- 
423525088260400 GENEVA LAKE AT LAKE GENEVA, WI  06/15 07:00 CDT 2.47 --     --- 
424848088083100 WIND LAKE AT OUTLET AT WIND LAKE, WI 
      HEADWATER, [Headwater]  06/15 07:00 CDT 8.38 --     --- 
      TAILWATER, [Tailwater]  06/15 07:00 CDT 5.34 --     --- 

Data status codes:
  --     Parameter not determined
  Dis     Data-collection discontinued
  Eqp     Equipment malfunction
  Mnt     Maintenance in progress